Time;durP1;ratioP1;P1;durP2;ratioP2;P2;SDS_P1;SDS_P2;PMS_P1;PMS_P2;Temp;Humidity;BMP_temperature;BMP_pressure;BME280_temperature;BME280_humidity;BME280_pressure;Samples;Min_cycle;Max_cycle;Signal;HPM_P1;HPM_P2
2022/03/18 00:00:33;;;;;;;5.80;3.80;;;6.90;99.90;;;;;;5046366;28;20264;-74
2022/03/18 00:03:04;;;;;;;5.90;3.70;;;6.90;99.90;;;;;;5040376;28;20177;-72
2022/03/18 00:05:32;;;;;;;6.03;3.87;;;6.90;99.90;;;;;;5053918;28;20275;-74
2022/03/18 00:08:01;;;;;;;4.27;3.43;;;6.90;99.90;;;;;;5049909;28;20177;-73
2022/03/18 00:10:26;;;;;;;5.07;3.60;;;6.80;99.90;;;;;;5047969;28;20239;-74
2022/03/18 00:12:54;;;;;;;4.80;3.63;;;6.80;99.90;;;;;;5055685;28;20200;-74
2022/03/18 00:15:23;;;;;;;4.70;4.00;;;6.80;99.90;;;;;;5046166;28;20291;-73
2022/03/18 00:17:49;;;;;;;5.90;3.80;;;6.70;99.90;;;;;;5045951;28;20178;-73
2022/03/18 00:20:17;;;;;;;4.33;3.43;;;6.70;99.90;;;;;;5048144;28;20170;-75
2022/03/18 00:22:44;;;;;;;4.90;3.70;;;6.70;99.90;;;;;;5053048;28;20212;-70
2022/03/18 00:25:12;;;;;;;6.27;3.67;;;6.60;99.90;;;;;;5046686;28;20234;-71
2022/03/18 00:27:45;;;;;;;5.67;3.87;;;6.60;99.90;;;;;;5042896;28;20236;-69
2022/03/18 00:30:16;;;;;;;8.13;3.93;;;6.60;99.90;;;;;;5048544;28;20189;-73
2022/03/18 00:32:42;;;;;;;5.70;3.90;;;6.50;99.90;;;;;;5054912;28;20197;-71
2022/03/18 00:35:10;;;;;;;5.47;3.57;;;6.50;99.90;;;;;;5055442;28;20205;-73
2022/03/18 00:37:36;;;;;;;4.17;3.47;;;6.50;99.90;;;;;;5054516;28;20189;-73
2022/03/18 00:40:04;;;;;;;6.77;3.97;;;6.40;99.90;;;;;;5050265;28;20193;-73
2022/03/18 00:42:31;;;;;;;6.13;3.93;;;6.40;99.90;;;;;;5047150;28;20221;-72
2022/03/18 00:45:00;;;;;;;5.80;3.53;;;6.30;99.90;;;;;;5048784;28;20189;-72
2022/03/18 00:52:54;;;;;;;6.27;3.90;;;6.20;99.90;;;;;;5049410;28;20228;-70
2022/03/18 00:55:20;;;;;;;7.00;4.20;;;6.10;99.90;;;;;;5046619;28;20178;-72
2022/03/18 00:57:46;;;;;;;4.97;4.17;;;6.10;99.90;;;;;;5047940;28;20202;-70
2022/03/18 01:00:12;;;;;;;4.90;3.63;;;6.00;99.90;;;;;;5043688;28;20239;-69
2022/03/18 01:02:38;;;;;;;6.17;4.00;;;6.00;99.90;;;;;;5045061;28;20189;-72
2022/03/18 01:05:03;;;;;;;6.93;4.20;;;6.00;99.90;;;;;;5041777;28;20379;-71
2022/03/18 01:07:31;;;;;;;5.53;3.93;;;5.90;99.90;;;;;;5052871;28;20185;-71
2022/03/18 01:10:00;;;;;;;4.70;3.50;;;5.90;99.90;;;;;;5050185;28;20386;-72
2022/03/18 01:12:27;;;;;;;4.97;3.90;;;5.90;99.90;;;;;;5071130;28;20208;-72
2022/03/18 01:14:55;;;;;;;6.27;3.77;;;5.90;99.90;;;;;;5047332;28;20224;-82
2022/03/18 01:17:21;;;;;;;5.67;4.03;;;5.80;99.90;;;;;;5044780;28;20181;-77
2022/03/18 01:19:47;;;;;;;7.47;4.30;;;5.80;99.90;;;;;;5041959;28;20201;-87
2022/03/18 01:22:13;;;;;;;5.37;4.00;;;5.80;99.90;;;;;;5043925;28;20264;-79
2022/03/18 01:24:38;;;;;;;4.50;3.97;;;5.70;99.90;;;;;;5043910;28;20183;-77
2022/03/18 01:27:05;;;;;;;6.70;3.83;;;5.70;99.90;;;;;;5051872;28;20200;-82
2022/03/18 01:29:34;;;;;;;5.63;3.30;;;5.70;99.90;;;;;;5042262;28;20170;-81
2022/03/18 01:31:59;;;;;;;5.40;3.73;;;5.60;99.90;;;;;;5058237;28;20181;-83
2022/03/18 01:34:30;;;;;;;4.40;3.57;;;5.60;99.90;;;;;;5052600;28;20208;-81
2022/03/18 01:36:58;;;;;;;4.37;3.43;;;5.60;99.90;;;;;;5067321;28;20194;-71
2022/03/18 01:39:24;;;;;;;5.50;3.73;;;5.60;99.90;;;;;;5041362;28;20178;-84
2022/03/18 01:41:52;;;;;;;5.03;3.73;;;5.60;99.90;;;;;;5056570;28;20180;-82
2022/03/18 01:44:21;;;;;;;5.07;4.00;;;5.60;99.90;;;;;;5044423;28;20184;-82
2022/03/18 01:46:49;;;;;;;5.73;3.90;;;5.60;99.90;;;;;;5042395;28;20188;-81
2022/03/18 01:49:17;;;;;;;6.50;4.13;;;5.50;99.90;;;;;;5044769;28;20178;-79
2022/03/18 01:51:44;;;;;;;5.27;4.10;;;5.50;99.90;;;;;;5045442;28;20296;-84
2022/03/18 01:56:56;;;;;;;6.30;4.10;;;5.50;99.90;;;;;;5041842;28;20219;-76
2022/03/18 01:59:25;;;;;;;8.87;4.50;;;5.40;99.90;;;;;;5053970;28;20220;-82
2022/03/18 02:01:53;;;;;;;5.07;4.23;;;5.30;99.90;;;;;;5049248;28;20182;-83
2022/03/18 02:04:19;;;;;;;4.93;3.90;;;5.30;99.90;;;;;;5055241;28;20247;-82
2022/03/18 02:06:45;;;;;;;6.27;4.07;;;5.30;99.90;;;;;;5044371;28;20178;-73
2022/03/18 02:09:12;;;;;;;7.17;4.40;;;5.20;99.90;;;;;;5043982;28;20201;-85
2022/03/18 02:11:42;;;;;;;6.17;4.87;;;5.20;99.90;;;;;;5059674;28;20238;-85
2022/03/18 02:14:08;;;;;;;6.17;4.30;;;5.20;99.90;;;;;;5053664;28;20212;-81
2022/03/18 02:16:34;;;;;;;6.80;4.57;;;5.10;99.90;;;;;;5052684;28;20201;-84
2022/03/18 02:19:02;;;;;;;5.97;4.40;;;5.10;99.90;;;;;;5068200;28;20260;-82
2022/03/18 02:21:29;;;;;;;6.43;4.50;;;5.10;99.90;;;;;;5041624;28;20190;-84
2022/03/18 02:23:56;;;;;;;5.60;4.00;;;5.00;99.90;;;;;;5041854;28;20236;-80
2022/03/18 02:26:22;;;;;;;5.30;4.07;;;5.00;99.90;;;;;;5046200;28;20280;-83
2022/03/18 02:28:47;;;;;;;7.57;4.17;;;5.00;99.90;;;;;;5043833;28;20301;-85
2022/03/18 02:31:18;;;;;;;6.47;3.87;;;5.00;99.90;;;;;;5038850;28;20197;-79
2022/03/18 02:33:44;;;;;;;8.23;4.63;;;5.00;99.90;;;;;;5061534;28;20205;-83
2022/03/18 02:36:09;;;;;;;5.50;4.17;;;5.00;99.90;;;;;;5051034;28;20203;-83
2022/03/18 02:38:35;;;;;;;7.37;4.20;;;4.90;99.90;;;;;;5054936;28;20447;-82
2022/03/18 02:41:00;;;;;;;6.17;3.87;;;4.90;99.90;;;;;;5051480;28;20173;-84
2022/03/18 02:43:26;;;;;;;6.57;4.07;;;4.90;99.90;;;;;;5051333;28;21558;-84
2022/03/18 02:45:54;;;;;;;5.70;4.00;;;4.90;99.90;;;;;;5040778;28;20217;-84
2022/03/18 02:48:19;;;;;;;7.97;4.37;;;4.90;99.90;;;;;;5040880;28;20210;-83
2022/03/18 02:50:45;;;;;;;5.57;3.80;;;4.90;99.90;;;;;;5043773;28;20224;-84
2022/03/18 02:53:11;;;;;;;5.13;3.83;;;4.90;99.90;;;;;;5036663;28;20201;-74
2022/03/18 02:55:37;;;;;;;7.67;4.23;;;4.90;99.90;;;;;;5045500;28;20190;-85
2022/03/18 02:58:02;;;;;;;5.60;4.47;;;4.90;99.90;;;;;;5045790;28;20185;-74
2022/03/18 03:00:30;;;;;;;5.80;4.70;;;4.90;99.90;;;;;;5049573;28;20181;-85
2022/03/18 03:02:56;;;;;;;5.90;4.60;;;4.90;99.90;;;;;;5046443;28;20252;-77
2022/03/18 03:08:12;;;;;;;5.93;4.50;;;4.80;99.90;;;;;;5046222;28;20227;-83
2022/03/18 03:10:38;;;;;;;6.93;4.10;;;4.70;99.90;;;;;;5039003;28;20201;-78
2022/03/18 03:13:10;;;;;;;6.23;4.43;;;4.70;99.90;;;;;;5039244;28;20206;-84
2022/03/18 03:15:36;;;;;;;7.53;4.53;;;4.70;99.90;;;;;;5046118;28;20212;-81
2022/03/18 03:18:04;;;;;;;5.07;4.20;;;4.60;99.90;;;;;;5046824;28;20257;-76
2022/03/18 03:20:31;;;;;;;8.20;4.50;;;4.60;99.90;;;;;;5043418;28;20181;-78
2022/03/18 03:23:00;;;;;;;6.87;4.10;;;4.60;99.90;;;;;;5040418;28;20509;-69
2022/03/18 03:25:27;;;;;;;9.20;4.30;;;4.50;99.90;;;;;;5042754;28;20182;-85
2022/03/18 03:27:54;;;;;;;6.13;4.17;;;4.50;99.90;;;;;;5045578;28;20189;-82
2022/03/18 03:30:23;;;;;;;7.10;4.60;;;4.50;99.90;;;;;;5045334;28;20199;-83
2022/03/18 03:32:52;;;;;;;7.13;4.27;;;4.50;99.90;;;;;;5048662;28;20209;-85
2022/03/18 03:35:18;;;;;;;6.67;4.47;;;4.50;99.90;;;;;;5046859;28;20182;-87
2022/03/18 03:37:46;;;;;;;4.63;4.20;;;4.40;99.90;;;;;;5042858;28;20178;-85
2022/03/18 03:40:15;;;;;;;5.30;4.50;;;4.40;99.90;;;;;;5046189;28;20257;-86
2022/03/18 03:42:41;;;;;;;5.53;4.33;;;4.40;99.90;;;;;;5047941;28;20181;-84
2022/03/18 03:45:12;;;;;;;4.83;3.70;;;4.40;99.90;;;;;;5042961;28;20255;-83
2022/03/18 03:47:39;;;;;;;4.40;3.63;;;4.30;99.90;;;;;;5058520;28;20178;-85
2022/03/18 03:50:06;;;;;;;5.20;4.00;;;4.30;99.90;;;;;;5038951;28;20209;-84
2022/03/18 03:52:35;;;;;;;7.67;4.43;;;4.30;99.90;;;;;;5035645;28;20186;-85
2022/03/18 03:55:02;;;;;;;5.63;4.47;;;4.30;99.90;;;;;;5048839;28;20256;-85
2022/03/18 03:57:28;;;;;;;5.30;4.10;;;4.20;99.90;;;;;;5040255;28;20189;-82
2022/03/18 03:59:53;;;;;;;6.03;4.20;;;4.20;99.90;;;;;;5044829;28;20189;-85
2022/03/18 04:02:21;;;;;;;5.63;4.10;;;4.20;99.90;;;;;;5046781;28;20216;-86
2022/03/18 04:04:50;;;;;;;8.37;4.60;;;4.20;99.90;;;;;;5039104;28;20189;-84
2022/03/18 04:07:16;;;;;;;6.27;4.90;;;4.20;99.90;;;;;;5059403;28;20170;-84
2022/03/18 04:09:46;;;;;;;6.77;4.57;;;4.20;99.90;;;;;;5043860;28;20197;-85
2022/03/18 04:12:12;;;;;;;5.17;4.43;;;4.10;99.90;;;;;;5047540;28;20185;-84
2022/03/18 04:14:40;;;;;;;8.57;4.90;;;4.00;99.90;;;;;;5044046;28;20210;-80
2022/03/18 04:17:05;;;;;;;7.07;4.90;;;4.10;99.90;;;;;;5045538;28;20458;-76
2022/03/18 04:19:31;;;;;;;4.43;4.00;;;4.00;99.90;;;;;;5049109;28;20178;-85
2022/03/18 04:21:56;;;;;;;6.90;4.30;;;4.00;99.90;;;;;;5042694;28;20219;-79
2022/03/18 04:24:24;;;;;;;7.00;4.70;;;4.00;99.90;;;;;;5041246;28;20201;-84
2022/03/18 04:26:52;;;;;;;6.47;4.70;;;4.00;99.90;;;;;;5046514;28;20173;-84
2022/03/18 04:29:18;;;;;;;9.50;4.67;;;4.00;99.90;;;;;;5051808;28;20189;-79
2022/03/18 04:31:46;;;;;;;6.07;4.50;;;3.90;99.90;;;;;;5047809;28;20197;-78
2022/03/18 04:34:12;;;;;;;7.67;5.17;;;4.00;99.90;;;;;;5056859;28;20197;-85
2022/03/18 04:36:41;;;;;;;7.13;5.17;;;3.90;99.90;;;;;;5045723;28;20185;-80
2022/03/18 04:39:06;;;;;;;6.87;4.83;;;3.90;99.90;;;;;;5048902;28;20222;-85
2022/03/18 04:41:34;;;;;;;4.83;4.03;;;3.90;99.90;;;;;;5055426;28;20196;-84
2022/03/18 04:44:01;;;;;;;6.57;4.77;;;3.90;99.90;;;;;;5058274;28;20655;-85
2022/03/18 04:46:28;;;;;;;5.57;4.90;;;3.90;99.90;;;;;;5041613;28;20228;-76
2022/03/18 04:48:56;;;;;;;6.93;5.10;;;3.90;99.90;;;;;;5043228;28;20178;-84
2022/03/18 04:51:22;;;;;;;6.33;4.57;;;3.90;99.90;;;;;;5041815;28;20190;-84
2022/03/18 04:53:48;;;;;;;5.40;4.47;;;3.80;99.90;;;;;;5042574;28;20213;-82
2022/03/18 04:59:00;;;;;;;6.10;5.07;;;3.80;99.90;;;;;;5042302;28;20205;-85
2022/03/18 05:01:26;;;;;;;6.00;5.13;;;3.80;99.90;;;;;;5046062;28;20201;-84
2022/03/18 05:03:52;;;;;;;7.47;5.73;;;3.80;99.90;;;;;;5048685;28;20174;-82
2022/03/18 05:06:18;;;;;;;8.37;5.93;;;3.80;99.90;;;;;;5050780;28;20186;-79
2022/03/18 05:08:46;;;;;;;7.57;6.20;;;3.90;99.90;;;;;;5044360;28;20221;-76
2022/03/18 05:11:16;;;;;;;7.80;5.97;;;3.90;99.90;;;;;;5065047;28;20253;-78
2022/03/18 05:13:44;;;;;;;10.27;6.03;;;3.90;99.90;;;;;;5060100;28;20194;-80
2022/03/18 05:16:10;;;;;;;6.53;5.03;;;4.00;99.90;;;;;;5046841;28;20209;-83
2022/03/18 05:18:36;;;;;;;6.23;5.33;;;4.00;99.90;;;;;;5044966;28;20173;-81
2022/03/18 05:21:03;;;;;;;6.03;4.87;;;4.00;99.90;;;;;;5046605;28;20181;-85
2022/03/18 05:23:29;;;;;;;5.27;4.57;;;4.00;99.90;;;;;;5047780;28;20202;-80
2022/03/18 05:25:54;;;;;;;8.07;6.20;;;4.00;99.90;;;;;;5047586;28;20264;-80
2022/03/18 05:28:20;;;;;;;6.37;5.23;;;4.00;99.90;;;;;;5050302;28;20268;-81
2022/03/18 05:30:48;;;;;;;9.77;6.40;;;4.00;99.90;;;;;;5044417;28;20188;-82
2022/03/18 05:33:14;;;;;;;10.00;5.70;;;4.00;99.90;;;;;;5048551;28;20194;-78
2022/03/18 05:35:41;;;;;;;10.27;5.30;;;3.90;99.90;;;;;;5043503;28;20185;-81
2022/03/18 05:38:09;;;;;;;7.77;4.80;;;3.90;99.90;;;;;;5045754;28;20173;-75
2022/03/18 05:40:37;;;;;;;6.63;5.13;;;3.80;99.90;;;;;;5045677;28;20177;-80
2022/03/18 05:43:03;;;;;;;7.03;4.90;;;3.80;99.90;;;;;;5045579;28;20191;-86
2022/03/18 05:45:29;;;;;;;7.20;4.87;;;3.80;99.90;;;;;;5050329;28;20268;-84
2022/03/18 05:47:54;;;;;;;6.67;5.70;;;3.70;99.90;;;;;;5047301;28;20201;-84
2022/03/18 05:50:21;;;;;;;7.27;5.53;;;3.70;99.90;;;;;;5048425;28;20256;-85
2022/03/18 05:52:47;;;;;;;7.70;5.03;;;3.70;99.90;;;;;;5042876;28;20205;-80
2022/03/18 05:55:13;;;;;;;8.63;5.23;;;3.70;99.90;;;;;;5048348;28;20180;-83
2022/03/18 05:57:39;;;;;;;6.97;5.17;;;3.70;99.90;;;;;;5048817;28;20173;-82
2022/03/18 06:00:08;;;;;;;7.67;5.60;;;3.70;99.90;;;;;;5045826;28;20181;-83
2022/03/18 06:02:35;;;;;;;6.70;5.43;;;3.60;99.90;;;;;;5043245;28;20184;-79
2022/03/18 06:05:04;;;;;;;10.17;5.97;;;3.60;99.90;;;;;;5049843;28;20169;-82
2022/03/18 06:07:29;;;;;;;7.77;5.33;;;3.60;99.90;;;;;;5060675;28;20224;-80
2022/03/18 06:12:41;;;;;;;7.10;5.20;;;3.60;99.90;;;;;;5045127;28;20192;-75
2022/03/18 06:15:07;;;;;;;6.53;5.30;;;3.60;99.90;;;;;;5050984;28;20166;-85
2022/03/18 06:17:35;;;;;;;8.47;5.47;;;3.50;99.90;;;;;;5050510;28;20174;-75
2022/03/18 06:20:00;;;;;;;8.63;5.60;;;3.50;99.90;;;;;;5053230;28;20177;-80
2022/03/18 06:22:26;;;;;;;7.87;5.50;;;3.50;99.90;;;;;;5039760;28;20174;-84
2022/03/18 06:24:54;;;;;;;10.00;6.77;;;3.50;99.90;;;;;;5042432;28;20194;-81
2022/03/18 06:27:19;;;;;;;8.77;6.07;;;3.50;99.90;;;;;;5044891;28;20212;-75
2022/03/18 06:29:45;;;;;;;11.77;6.90;;;3.50;99.90;;;;;;5045624;28;20217;-82
2022/03/18 06:32:13;;;;;;;10.00;5.90;;;3.60;99.90;;;;;;5052091;28;20436;-82
2022/03/18 06:34:39;;;;;;;10.53;6.40;;;3.60;99.90;;;;;;5048604;28;20213;-85
2022/03/18 06:37:04;;;;;;;11.80;6.63;;;3.60;99.90;;;;;;5051301;28;20193;-80
2022/03/18 06:39:34;;;;;;;10.93;6.50;;;3.60;99.90;;;;;;5053870;28;20184;-83
2022/03/18 06:42:01;;;;;;;9.17;5.83;;;3.60;99.90;;;;;;5050412;28;20191;-81
2022/03/18 06:44:26;;;;;;;12.67;6.97;;;3.60;99.90;;;;;;5057769;28;20604;-80
2022/03/18 06:46:55;;;;;;;13.23;6.60;;;3.60;99.90;;;;;;5049409;28;20276;-75
2022/03/18 06:49:22;;;;;;;8.17;6.13;;;3.60;99.90;;;;;;5046075;28;20264;-84
2022/03/18 06:51:51;;;;;;;8.13;6.33;;;3.70;99.90;;;;;;5049121;28;20262;-83
2022/03/18 06:54:16;;;;;;;11.17;6.47;;;3.70;99.90;;;;;;5041804;28;20272;-80
2022/03/18 06:56:43;;;;;;;8.20;6.30;;;3.70;99.90;;;;;;5046556;28;20269;-79
2022/03/18 06:59:08;;;;;;;7.67;6.17;;;3.70;99.90;;;;;;5047750;28;20259;-71
2022/03/18 07:01:36;;;;;;;10.23;5.97;;;3.70;99.90;;;;;;5053751;28;20220;-71
2022/03/18 07:04:02;;;;;;;11.13;7.37;;;3.80;99.90;;;;;;5050234;28;20169;-69
2022/03/18 07:06:29;;;;;;;8.53;6.90;;;3.80;99.90;;;;;;5051814;28;20212;-71
2022/03/18 07:08:55;;;;;;;8.00;6.00;;;3.80;99.90;;;;;;5053920;28;20177;-71
2022/03/18 07:11:21;;;;;;;8.43;6.47;;;3.90;99.90;;;;;;5049484;28;20196;-70
2022/03/18 07:13:47;;;;;;;8.43;6.07;;;3.90;99.90;;;;;;5045862;28;20208;-68
2022/03/18 07:18:57;;;;;;;8.10;6.10;;;4.00;99.90;;;;;;5054292;28;20188;-70
2022/03/18 07:21:23;;;;;;;8.40;6.40;;;4.10;99.90;;;;;;5044612;28;20201;-75
2022/03/18 07:23:51;;;;;;;11.07;7.00;;;4.10;99.90;;;;;;5053165;28;20185;-73
2022/03/18 07:26:16;;;;;;;9.60;7.23;;;4.20;99.90;;;;;;5050431;28;20265;-71
2022/03/18 07:28:43;;;;;;;10.53;6.93;;;4.30;99.90;;;;;;5045592;28;20209;-69
2022/03/18 07:31:09;;;;;;;10.63;6.53;;;4.30;99.90;;;;;;5060205;28;20187;-76
2022/03/18 07:33:34;;;;;;;8.67;5.90;;;4.40;99.90;;;;;;5043548;28;20212;-78
2022/03/18 07:36:00;;;;;;;8.07;6.17;;;4.50;99.90;;;;;;5051249;28;20205;-79
2022/03/18 07:38:25;;;;;;;8.50;6.37;;;4.60;99.90;;;;;;5054680;28;20177;-80
2022/03/18 07:40:51;;;;;;;7.33;5.93;;;4.70;99.90;;;;;;5054612;28;20173;-77
2022/03/18 07:43:17;;;;;;;8.60;6.63;;;4.70;99.90;;;;;;5057799;28;20173;-80
2022/03/18 07:45:42;;;;;;;7.77;6.40;;;4.80;99.90;;;;;;5048394;28;20185;-74
2022/03/18 07:48:09;;;;;;;8.90;6.40;;;4.90;99.90;;;;;;5057062;28;20274;-81
2022/03/18 07:50:37;;;;;;;11.10;6.83;;;5.00;99.90;;;;;;5054521;28;20181;-79
2022/03/18 07:53:08;;;;;;;7.93;6.33;;;5.10;99.90;;;;;;5057333;28;20266;-75
2022/03/18 07:55:38;;;;;;;11.37;7.27;;;5.20;99.90;;;;;;5057189;28;20211;-76
2022/03/18 07:58:06;;;;;;;8.83;6.77;;;5.30;99.90;;;;;;5058900;28;20212;-75
2022/03/18 08:00:32;;;;;;;10.17;7.13;;;5.40;99.90;;;;;;5058861;28;20184;-77
2022/03/18 08:03:03;;;;;;;10.23;7.03;;;5.50;99.90;;;;;;5063944;28;20213;-79
2022/03/18 08:05:29;;;;;;;9.80;7.10;;;5.60;99.90;;;;;;5080106;28;20177;-77
2022/03/18 08:07:57;;;;;;;8.13;6.90;;;5.80;99.90;;;;;;5056112;28;20268;-81
2022/03/18 08:10:23;;;;;;;8.60;6.67;;;5.90;99.90;;;;;;5056202;28;20319;-75
2022/03/18 08:12:49;;;;;;;8.20;6.50;;;6.00;99.90;;;;;;5038790;28;20322;-81
2022/03/18 08:15:16;;;;;;;12.77;7.17;;;6.10;99.90;;;;;;5056197;28;20181;-75
2022/03/18 08:17:45;;;;;;;12.60;7.70;;;6.20;99.90;;;;;;5059446;28;20177;-79
2022/03/18 08:20:13;;;;;;;12.10;8.07;;;6.30;99.90;;;;;;5055159;28;20192;-76
2022/03/18 08:22:44;;;;;;;10.30;7.97;;;6.40;99.90;;;;;;5040920;28;20182;-73
2022/03/18 08:25:10;;;;;;;10.10;7.33;;;6.50;99.90;;;;;;5062962;28;20184;-78
2022/03/18 08:27:37;;;;;;;11.13;6.80;;;6.60;99.90;;;;;;5061083;28;20200;-82
2022/03/18 08:30:05;;;;;;;9.30;6.87;;;6.60;99.90;;;;;;5069225;28;20169;-76
2022/03/18 08:32:32;;;;;;;8.70;6.43;;;6.70;99.90;;;;;;5057789;28;20174;-82
2022/03/18 08:34:58;;;;;;;10.33;6.73;;;6.80;99.90;;;;;;5045461;28;20182;-78
2022/03/18 08:40:14;;;;;;;8.73;6.23;;;6.90;99.90;;;;;;5050557;28;20179;-79
2022/03/18 08:42:42;;;;;;;9.60;6.67;;;7.00;99.90;;;;;;5063044;28;20235;-80
2022/03/18 08:45:09;;;;;;;9.17;6.80;;;7.10;99.90;;;;;;5059824;28;20197;-83
2022/03/18 08:47:35;;;;;;;8.93;6.80;;;7.10;99.90;;;;;;5043819;28;20186;-80
2022/03/18 08:50:00;;;;;;;8.93;6.50;;;7.20;99.90;;;;;;5059311;28;20165;-73
2022/03/18 08:52:26;;;;;;;7.97;6.30;;;7.20;99.90;;;;;;5060354;28;20173;-80
2022/03/18 08:54:54;;;;;;;8.70;5.20;;;7.30;99.90;;;;;;5059990;28;20162;-80
2022/03/18 08:57:19;;;;;;;9.03;5.20;;;7.40;99.90;;;;;;5060669;28;20199;-80
2022/03/18 08:59:48;;;;;;;7.60;5.67;;;7.50;99.90;;;;;;5062583;28;20252;-77
2022/03/18 09:02:15;;;;;;;7.50;4.83;;;7.50;99.90;;;;;;5059146;28;20198;-72
2022/03/18 09:04:42;;;;;;;8.20;4.83;;;7.70;99.90;;;;;;5051397;28;20196;-80
2022/03/18 09:07:10;;;;;;;6.80;4.47;;;7.70;99.90;;;;;;5053233;28;20288;-81
2022/03/18 09:09:36;;;;;;;6.80;4.60;;;7.80;99.90;;;;;;5058297;28;20169;-82
2022/03/18 09:12:02;;;;;;;7.03;4.70;;;7.90;99.90;;;;;;5060229;28;20335;-80
2022/03/18 09:14:30;;;;;;;10.37;4.90;;;8.00;99.90;;;;;;5049781;28;20225;-82
2022/03/18 09:16:58;;;;;;;9.33;4.93;;;8.10;99.90;;;;;;5055441;28;20330;-78
2022/03/18 09:19:26;;;;;;;6.03;4.70;;;8.20;99.90;;;;;;5073483;28;20332;-81
2022/03/18 09:21:52;;;;;;;6.10;4.50;;;8.30;99.90;;;;;;5056555;28;20200;-82
2022/03/18 09:24:20;;;;;;;6.90;4.67;;;8.40;99.90;;;;;;5049855;28;20186;-82
2022/03/18 09:26:46;;;;;;;7.20;5.27;;;8.50;99.90;;;;;;5052278;28;20181;-81
2022/03/18 09:29:12;;;;;;;6.37;4.57;;;8.60;99.90;;;;;;5056640;28;20205;-73
2022/03/18 09:31:37;;;;;;;8.87;5.40;;;8.60;99.90;;;;;;5056333;28;20181;-74
2022/03/18 09:34:03;;;;;;;7.87;4.53;;;8.70;99.90;;;;;;5056087;28;20310;-72
2022/03/18 09:36:31;;;;;;;7.80;4.83;;;8.80;99.90;;;;;;5051910;28;20234;-71
2022/03/18 09:38:59;;;;;;;7.90;4.93;;;9.00;99.90;;;;;;5044928;28;20279;-72
2022/03/18 09:41:26;;;;;;;7.43;4.70;;;9.00;99.90;;;;;;5037659;28;20178;-73
2022/03/18 09:43:51;;;;;;;10.57;5.50;;;9.10;99.90;;;;;;5051539;28;20225;-73
2022/03/18 09:46:20;;;;;;;6.20;4.80;;;9.30;99.90;;;;;;5053473;28;20201;-72
2022/03/18 09:48:46;;;;;;;6.10;4.10;;;9.50;99.90;;;;;;5056055;28;20251;-71
2022/03/18 09:51:16;;;;;;;7.60;4.43;;;10.00;99.90;;;;;;5056575;28;20177;-73
2022/03/18 09:53:44;;;;;;;7.03;3.77;;;10.70;99.90;;;;;;5059314;28;20429;-75
2022/03/18 09:56:11;;;;;;;5.80;3.53;;;11.60;99.90;;;;;;5055416;28;20185;-72
2022/03/18 09:58:38;;;;;;;4.97;3.10;;;12.40;99.90;;;;;;5050332;28;20190;-73
2022/03/18 10:01:04;;;;;;;4.95;3.10;;;13.20;99.90;;;;;;5048038;28;20232;-73
2022/03/18 10:03:41;;;;;;;4.65;2.92;;;13.80;99.90;;;;;;5035870;28;20212;-74
2022/03/18 10:06:10;;;;;;;4.20;2.70;;;14.40;99.90;;;;;;5037504;28;20205;-73
2022/03/18 10:08:37;;;;;;;6.15;3.13;;;14.90;99.90;;;;;;5055471;28;20185;-74
2022/03/18 10:11:23;;;;;;;3.90;3.10;;;15.30;99.90;;;;;;5052142;28;20202;-74
2022/03/18 10:14:02;;;;;;;4.13;3.63;;;15.70;99.90;;;;;;5045572;28;20201;-72
2022/03/18 10:16:33;;;;;;;5.07;4.00;;;16.10;99.90;;;;;;5035713;28;20166;-74
2022/03/18 10:19:00;;;;;;;6.97;5.00;;;16.20;99.90;;;;;;5045231;28;20188;-73
2022/03/18 10:21:25;;;;;;;6.35;4.28;;;16.30;99.90;;;;;;5054674;28;20234;-71
2022/03/18 10:24:06;;;;;;;6.22;4.40;;;16.30;99.90;;;;;;5062899;28;20218;-74
2022/03/18 10:26:41;;;;;;;6.82;4.65;;;16.40;99.90;;;;;;5092144;28;20403;-74
2022/03/18 10:29:11;;;;;;;6.85;4.75;;;16.40;99.90;;;;;;5087662;28;20215;-74
2022/03/18 10:31:39;;;;;;;5.35;3.90;;;16.40;99.90;;;;;;5075128;28;20314;-74
2022/03/18 10:37:11;;;;;;;4.85;3.65;;;16.30;99.90;;;;;;5043711;28;20228;-74
2022/03/18 10:39:38;;;;;;;7.68;4.05;;;16.40;99.90;;;;;;5054945;28;20173;-74
2022/03/18 10:42:15;;;;;;;5.85;3.40;;;16.50;99.90;;;;;;5055058;28;20177;-73
2022/03/18 10:44:50;;;;;;;3.83;3.10;;;16.50;99.90;;;;;;5055295;28;20177;-74
2022/03/18 10:47:26;;;;;;;6.10;2.90;;;16.60;99.90;;;;;;5039134;28;20192;-71
2022/03/18 10:50:26;;;;;;;4.22;3.20;;;16.70;99.90;;;;;;5051783;28;20173;-74
2022/03/18 10:52:58;;;;;;;4.93;3.15;;;16.90;99.90;;;;;;5051876;28;20201;-75
2022/03/18 10:55:36;;;;;;;5.40;2.70;;;16.90;99.90;;;;;;5051770;28;20207;-73
2022/03/18 10:58:06;;;;;;;4.20;2.80;;;16.90;99.90;;;;;;5073474;28;20208;-73
2022/03/18 11:00:39;;;;;;;4.22;2.58;;;17.00;99.90;;;;;;5055270;28;20173;-75
2022/03/18 11:03:08;;;;;;;3.85;2.65;;;17.10;99.90;;;;;;5070864;28;20291;-75
2022/03/18 11:05:51;;;;;;;4.38;2.42;;;17.20;99.90;;;;;;5074329;28;20191;-73
2022/03/18 11:08:26;;;;;;;3.72;2.50;;;17.40;99.90;;;;;;5082673;28;20176;-73
2022/03/18 11:13:48;;;;;;;6.20;3.00;;;17.50;99.90;;;;;;5061480;28;20211;-76
2022/03/18 11:16:18;;;;;;;3.35;2.20;;;17.60;99.90;;;;;;5048826;28;20180;-73
2022/03/18 11:18:48;;;;;;;2.97;2.17;;;17.50;99.90;;;;;;5044615;28;20237;-75
2022/03/18 11:21:15;;;;;;;3.80;2.50;;;17.50;99.90;;;;;;5051638;28;20259;-72
2022/03/18 11:23:42;;;;;;;4.05;2.35;;;17.50;99.90;;;;;;5043530;28;20193;-75
2022/03/18 11:26:11;;;;;;;4.00;2.38;;;17.50;99.90;;;;;;5053662;28;20230;-72
2022/03/18 11:28:40;;;;;;;3.72;2.28;;;17.60;99.90;;;;;;5047040;28;20197;-74
2022/03/18 11:31:06;;;;;;;4.03;2.40;;;17.80;99.90;;;;;;5052378;28;20214;-76
2022/03/18 11:34:01;;;;;;;2.97;2.20;;;17.90;99.90;;;;;;5047916;28;20212;-76
2022/03/18 11:36:30;;;;;;;2.40;1.95;;;17.90;99.90;;;;;;5039386;28;20173;-76
2022/03/18 11:39:02;;;;;;;2.72;2.20;;;18.00;99.90;;;;;;5051157;28;20263;-74
2022/03/18 11:41:51;;;;;;;4.60;2.67;;;18.10;99.90;;;;;;5091156;28;20187;-76
2022/03/18 11:44:36;;;;;;;3.38;1.95;;;18.20;99.90;;;;;;5053692;28;20258;-75
2022/03/18 11:47:26;;;;;;;2.38;1.83;;;18.20;99.90;;;;;;5069309;28;20289;-77
2022/03/18 11:49:51;;;;;;;2.55;2.00;;;18.30;99.90;;;;;;5048960;28;20177;-76
2022/03/18 11:52:17;;;;;;;3.58;2.00;;;18.40;99.90;;;;;;5053890;28;20177;-73
2022/03/18 11:54:53;;;;;;;2.50;1.85;;;18.60;99.90;;;;;;5053488;28;20245;-75
2022/03/18 11:57:33;;;;;;;3.20;1.70;;;18.70;99.90;;;;;;5040893;28;20172;-75
2022/03/18 12:00:05;;;;;;;2.10;1.60;;;18.90;99.90;;;;;;5055714;28;20201;-75
2022/03/18 12:02:32;;;;;;;3.95;2.17;;;19.00;99.90;;;;;;5055332;28;20169;-76
2022/03/18 12:04:58;;;;;;;2.72;1.83;;;19.00;99.90;;;;;;5065564;28;20181;-76
2022/03/18 12:07:46;;;;;;;4.25;1.85;;;19.10;99.90;;;;;;5049774;28;20180;-76
2022/03/18 12:10:15;;;;;;;3.33;1.63;;;19.20;99.90;;;;;;5050360;28;20200;-77
2022/03/18 12:12:43;;;;;;;3.55;2.05;;;19.10;99.90;;;;;;5057044;28;20197;-75
2022/03/18 12:15:22;;;;;;;3.53;1.90;;;19.10;99.90;;;;;;5060517;28;20259;-76
2022/03/18 12:17:58;;;;;;;5.20;1.95;;;19.20;99.90;;;;;;5060366;28;20169;-77
2022/03/18 12:20:30;;;;;;;2.00;1.70;;;19.20;99.90;;;;;;5060006;28;20176;-76
2022/03/18 12:22:58;;;;;;;3.75;1.75;;;19.20;99.90;;;;;;5066713;28;20187;-76
2022/03/18 12:25:26;;;;;;;2.92;1.80;;;19.10;99.90;;;;;;5058292;28;20217;-76
2022/03/18 12:27:54;;;;;;;3.78;1.80;;;19.10;99.90;;;;;;5060117;28;20173;-75
2022/03/18 12:30:30;;;;;;;1.75;1.38;;;19.10;99.90;;;;;;5058737;28;20307;-76
2022/03/18 12:33:04;;;;;;;2.08;1.50;;;19.20;99.90;;;;;;5051719;28;20201;-73
2022/03/18 12:35:37;;;;;;;3.25;1.70;;;19.30;99.90;;;;;;5060016;28;20207;-75
2022/03/18 12:38:06;;;;;;;2.45;1.25;;;19.40;99.90;;;;;;5060179;28;20199;-76
2022/03/18 12:40:43;;;;;;;2.97;1.35;;;19.40;99.90;;;;;;5069349;28;20351;-76
2022/03/18 12:43:14;;;;;;;2.00;1.40;;;19.50;99.90;;;;;;5056467;28;20260;-77
2022/03/18 12:45:42;;;;;;;1.73;1.02;;;19.70;99.90;;;;;;5056863;28;20458;-76
2022/03/18 12:48:14;;;;;;;2.10;1.00;;;19.80;99.90;;;;;;5040561;28;20229;-75
2022/03/18 12:50:57;;;;;;;2.78;1.10;;;19.90;99.90;;;;;;5059279;28;20354;-76
2022/03/18 12:53:35;;;;;;;3.15;1.00;;;20.00;99.90;;;;;;5059860;28;20208;-76
2022/03/18 12:56:03;;;;;;;1.63;1.00;;;20.20;99.90;;;;;;5059948;28;20271;-75
2022/03/18 12:58:41;;;;;;;1.38;0.80;;;20.30;99.90;;;;;;5059720;28;20185;-74
2022/03/18 13:01:11;;;;;;;2.08;0.93;;;20.50;92.20;;;;;;5057363;28;20202;-76
2022/03/18 13:03:46;;;;;;;0.98;0.50;;;20.50;99.90;;;;;;5059845;28;20260;-75
2022/03/18 13:06:22;;;;;;;0.80;0.60;;;20.70;95.80;;;;;;5053587;28;20256;-72
2022/03/18 13:08:52;;;;;;;1.15;0.60;;;20.80;99.30;;;;;;5075646;28;20186;-74
2022/03/18 13:11:18;;;;;;;0.85;0.50;;;20.90;91.70;;;;;;5073902;28;20165;-75
2022/03/18 13:13:50;;;;;;;1.52;0.70;;;21.00;93.70;;;;;;5056469;28;20204;-76
2022/03/18 13:16:19;;;;;;;1.35;0.50;;;21.00;85.60;;;;;;5054367;28;20169;-75
2022/03/18 13:18:51;;;;;;;0.30;0.30;;;21.00;89.00;;;;;;5044569;28;20174;-76
2022/03/18 13:21:16;;;;;;;0.63;0.40;;;21.00;83.80;;;;;;5073301;28;20205;-75
2022/03/18 13:23:50;;;;;;;0.55;0.40;;;21.00;83.30;;;;;;5047581;28;20177;-75
2022/03/18 13:26:16;;;;;;;0.77;0.47;;;21.00;76.00;;;;;;5056087;28;20216;-76